sensor_id;sensor_type;location;lat;lon;timestamp;P1;durP1;ratioP1;P2;durP2;ratioP2
26702;SDS011;14316;51.074;3.704;2023-06-05T00:00:26;9.02;;;5.32;;
26702;SDS011;14316;51.074;3.704;2023-06-05T00:02:53;7.05;;;5.57;;
26702;SDS011;14316;51.074;3.704;2023-06-05T00:05:19;12.63;;;6.97;;
26702;SDS011;14316;51.074;3.704;2023-06-05T00:07:44;16.67;;;10.82;;
26702;SDS011;14316;51.074;3.704;2023-06-05T00:10:10;19.58;;;13.52;;
26702;SDS011;14316;51.074;3.704;2023-06-05T00:12:36;20.83;;;13.73;;
26702;SDS011;14316;51.074;3.704;2023-06-05T00:15:04;16.50;;;12.93;;
26702;SDS011;14316;51.074;3.704;2023-06-05T00:17:33;15.13;;;10.93;;
26702;SDS011;14316;51.074;3.704;2023-06-05T00:20:01;19.13;;;10.48;;
26702;SDS011;14316;51.074;3.704;2023-06-05T00:22:28;17.50;;;11.15;;
26702;SDS011;14316;51.074;3.704;2023-06-05T00:24:53;13.43;;;8.98;;
26702;SDS011;14316;51.074;3.704;2023-06-05T00:27:20;13.73;;;9.40;;
26702;SDS011;14316;51.074;3.704;2023-06-05T00:29:45;13.88;;;7.63;;
26702;SDS011;14316;51.074;3.704;2023-06-05T00:32:11;13.10;;;7.63;;
26702;SDS011;14316;51.074;3.704;2023-06-05T00:34:37;13.90;;;9.07;;
26702;SDS011;14316;51.074;3.704;2023-06-05T00:37:02;12.40;;;10.40;;
26702;SDS011;14316;51.074;3.704;2023-06-05T00:39:28;11.02;;;8.43;;
26702;SDS011;14316;51.074;3.704;2023-06-05T00:41:54;9.48;;;7.35;;
26702;SDS011;14316;51.074;3.704;2023-06-05T00:44:20;10.00;;;7.05;;
26702;SDS011;14316;51.074;3.704;2023-06-05T00:46:47;9.95;;;6.40;;
26702;SDS011;14316;51.074;3.704;2023-06-05T00:49:18;6.72;;;5.70;;
26702;SDS011;14316;51.074;3.704;2023-06-05T00:51:45;8.05;;;5.85;;
26702;SDS011;14316;51.074;3.704;2023-06-05T00:54:12;7.68;;;5.70;;
26702;SDS011;14316;51.074;3.704;2023-06-05T00:56:39;7.43;;;6.18;;
26702;SDS011;14316;51.074;3.704;2023-06-05T00:59:08;9.57;;;6.13;;
26702;SDS011;14316;51.074;3.704;2023-06-05T01:01:34;8.32;;;5.97;;
26702;SDS011;14316;51.074;3.704;2023-06-05T01:04:01;9.63;;;6.50;;
26702;SDS011;14316;51.074;3.704;2023-06-05T01:06:28;11.07;;;5.78;;
26702;SDS011;14316;51.074;3.704;2023-06-05T01:08:56;9.07;;;5.88;;
26702;SDS011;14316;51.074;3.704;2023-06-05T01:11:31;10.40;;;6.03;;
26702;SDS011;14316;51.074;3.704;2023-06-05T01:14:14;9.70;;;5.97;;
26702;SDS011;14316;51.074;3.704;2023-06-05T01:16:48;9.25;;;6.13;;
26702;SDS011;14316;51.074;3.704;2023-06-05T01:19:19;11.20;;;6.28;;
26702;SDS011;14316;51.074;3.704;2023-06-05T01:21:46;10.13;;;5.93;;
26702;SDS011;14316;51.074;3.704;2023-06-05T01:24:12;10.88;;;6.78;;
26702;SDS011;14316;51.074;3.704;2023-06-05T01:32:04;9.65;;;6.30;;
26702;SDS011;14316;51.074;3.704;2023-06-05T01:34:36;11.35;;;6.75;;
26702;SDS011;14316;51.074;3.704;2023-06-05T01:37:03;9.68;;;6.32;;
26702;SDS011;14316;51.074;3.704;2023-06-05T01:39:33;7.88;;;6.50;;
26702;SDS011;14316;51.074;3.704;2023-06-05T01:41:59;9.43;;;6.82;;
26702;SDS011;14316;51.074;3.704;2023-06-05T01:44:28;8.90;;;6.30;;
26702;SDS011;14316;51.074;3.704;2023-06-05T01:46:55;11.38;;;6.22;;
26702;SDS011;14316;51.074;3.704;2023-06-05T01:49:21;10.13;;;6.00;;
26702;SDS011;14316;51.074;3.704;2023-06-05T01:51:47;12.25;;;6.90;;
26702;SDS011;14316;51.074;3.704;2023-06-05T01:54:13;8.70;;;6.57;;
26702;SDS011;14316;51.074;3.704;2023-06-05T01:56:40;10.70;;;7.28;;
26702;SDS011;14316;51.074;3.704;2023-06-05T01:59:08;8.38;;;6.78;;
26702;SDS011;14316;51.074;3.704;2023-06-05T02:01:34;12.20;;;7.53;;
26702;SDS011;14316;51.074;3.704;2023-06-05T02:04:00;9.55;;;6.70;;
26702;SDS011;14316;51.074;3.704;2023-06-05T02:06:31;9.65;;;6.90;;
26702;SDS011;14316;51.074;3.704;2023-06-05T02:09:06;9.48;;;6.57;;
26702;SDS011;14316;51.074;3.704;2023-06-05T02:11:37;9.20;;;6.40;;
26702;SDS011;14316;51.074;3.704;2023-06-05T02:14:04;9.38;;;6.65;;
26702;SDS011;14316;51.074;3.704;2023-06-05T02:16:38;11.68;;;6.97;;
26702;SDS011;14316;51.074;3.704;2023-06-05T02:19:05;10.40;;;7.20;;
26702;SDS011;14316;51.074;3.704;2023-06-05T02:21:31;9.60;;;7.30;;
26702;SDS011;14316;51.074;3.704;2023-06-05T02:24:01;13.07;;;7.07;;
26702;SDS011;14316;51.074;3.704;2023-06-05T02:26:27;9.35;;;7.28;;
26702;SDS011;14316;51.074;3.704;2023-06-05T02:28:54;12.85;;;8.32;;
26702;SDS011;14316;51.074;3.704;2023-06-05T02:31:21;13.43;;;8.57;;
26702;SDS011;14316;51.074;3.704;2023-06-05T02:33:50;14.00;;;8.45;;
26702;SDS011;14316;51.074;3.704;2023-06-05T02:36:20;12.75;;;9.00;;
26702;SDS011;14316;51.074;3.704;2023-06-05T02:38:47;12.65;;;8.10;;
26702;SDS011;14316;51.074;3.704;2023-06-05T02:41:17;11.60;;;8.52;;
26702;SDS011;14316;51.074;3.704;2023-06-05T02:43:43;10.20;;;8.55;;
26702;SDS011;14316;51.074;3.704;2023-06-05T02:46:10;13.88;;;8.95;;
26702;SDS011;14316;51.074;3.704;2023-06-05T02:48:36;13.48;;;9.20;;
26702;SDS011;14316;51.074;3.704;2023-06-05T02:51:02;12.93;;;9.45;;
26702;SDS011;14316;51.074;3.704;2023-06-05T02:53:29;15.73;;;9.27;;
26702;SDS011;14316;51.074;3.704;2023-06-05T02:55:54;13.27;;;8.45;;
26702;SDS011;14316;51.074;3.704;2023-06-05T02:58:20;13.85;;;9.38;;
26702;SDS011;14316;51.074;3.704;2023-06-05T03:00:47;15.02;;;9.43;;
26702;SDS011;14316;51.074;3.704;2023-06-05T03:03:14;13.13;;;8.65;;
26702;SDS011;14316;51.074;3.704;2023-06-05T03:05:42;18.60;;;9.80;;
26702;SDS011;14316;51.074;3.704;2023-06-05T03:08:09;10.60;;;8.77;;
26702;SDS011;14316;51.074;3.704;2023-06-05T03:10:35;10.95;;;8.35;;
26702;SDS011;14316;51.074;3.704;2023-06-05T03:13:01;12.80;;;8.15;;
26702;SDS011;14316;51.074;3.704;2023-06-05T03:15:27;13.20;;;8.88;;
26702;SDS011;14316;51.074;3.704;2023-06-05T03:17:53;13.43;;;8.90;;
26702;SDS011;14316;51.074;3.704;2023-06-05T03:20:19;13.48;;;8.75;;
26702;SDS011;14316;51.074;3.704;2023-06-05T03:22:45;12.95;;;9.27;;
26702;SDS011;14316;51.074;3.704;2023-06-05T03:25:11;13.00;;;8.55;;
26702;SDS011;14316;51.074;3.704;2023-06-05T03:27:36;15.20;;;8.98;;
26702;SDS011;14316;51.074;3.704;2023-06-05T03:30:03;12.32;;;8.57;;
26702;SDS011;14316;51.074;3.704;2023-06-05T03:32:29;11.20;;;8.00;;
26702;SDS011;14316;51.074;3.704;2023-06-05T03:34:55;12.88;;;8.52;;
26702;SDS011;14316;51.074;3.704;2023-06-05T03:37:21;13.40;;;8.90;;
26702;SDS011;14316;51.074;3.704;2023-06-05T03:39:46;13.55;;;8.60;;
26702;SDS011;14316;51.074;3.704;2023-06-05T03:42:12;13.63;;;8.70;;
26702;SDS011;14316;51.074;3.704;2023-06-05T03:44:38;12.02;;;9.00;;
26702;SDS011;14316;51.074;3.704;2023-06-05T03:47:04;13.35;;;8.88;;
26702;SDS011;14316;51.074;3.704;2023-06-05T03:49:31;14.82;;;9.10;;
26702;SDS011;14316;51.074;3.704;2023-06-05T03:51:56;14.77;;;9.27;;
26702;SDS011;14316;51.074;3.704;2023-06-05T03:54:29;15.35;;;9.45;;
26702;SDS011;14316;51.074;3.704;2023-06-05T03:56:58;12.77;;;9.65;;
26702;SDS011;14316;51.074;3.704;2023-06-05T03:59:26;15.18;;;9.23;;
26702;SDS011;14316;51.074;3.704;2023-06-05T04:01:53;15.85;;;9.75;;
26702;SDS011;14316;51.074;3.704;2023-06-05T04:04:20;16.08;;;9.32;;
26702;SDS011;14316;51.074;3.704;2023-06-05T04:06:46;12.93;;;9.43;;
26702;SDS011;14316;51.074;3.704;2023-06-05T04:09:12;13.38;;;9.38;;
26702;SDS011;14316;51.074;3.704;2023-06-05T04:11:42;12.75;;;9.63;;
26702;SDS011;14316;51.074;3.704;2023-06-05T04:14:09;12.52;;;9.23;;
26702;SDS011;14316;51.074;3.704;2023-06-05T04:16:36;18.83;;;10.05;;
26702;SDS011;14316;51.074;3.704;2023-06-05T04:19:09;19.15;;;10.98;;
26702;SDS011;14316;51.074;3.704;2023-06-05T04:21:36;15.50;;;11.65;;
26702;SDS011;14316;51.074;3.704;2023-06-05T04:24:10;15.77;;;11.25;;
26702;SDS011;14316;51.074;3.704;2023-06-05T04:26:37;18.63;;;12.63;;
26702;SDS011;14316;51.074;3.704;2023-06-05T04:29:04;15.80;;;11.65;;
26702;SDS011;14316;51.074;3.704;2023-06-05T04:31:31;14.35;;;12.25;;
26702;SDS011;14316;51.074;3.704;2023-06-05T04:34:02;15.45;;;12.23;;
26702;SDS011;14316;51.074;3.704;2023-06-05T04:36:28;17.35;;;12.50;;
26702;SDS011;14316;51.074;3.704;2023-06-05T04:38:53;18.63;;;13.43;;
26702;SDS011;14316;51.074;3.704;2023-06-05T04:41:19;22.55;;;14.45;;
26702;SDS011;14316;51.074;3.704;2023-06-05T04:43:46;16.80;;;13.43;;
26702;SDS011;14316;51.074;3.704;2023-06-05T04:46:12;16.25;;;13.38;;
26702;SDS011;14316;51.074;3.704;2023-06-05T04:48:38;20.00;;;15.60;;
26702;SDS011;14316;51.074;3.704;2023-06-05T04:51:04;18.77;;;15.27;;
26702;SDS011;14316;51.074;3.704;2023-06-05T04:53:29;20.65;;;14.57;;
26702;SDS011;14316;51.074;3.704;2023-06-05T04:55:56;18.75;;;15.00;;
26702;SDS011;14316;51.074;3.704;2023-06-05T04:58:25;21.02;;;15.10;;
26702;SDS011;14316;51.074;3.704;2023-06-05T05:00:51;22.63;;;15.43;;
26702;SDS011;14316;51.074;3.704;2023-06-05T05:03:17;21.45;;;14.85;;
26702;SDS011;14316;51.074;3.704;2023-06-05T05:05:42;16.85;;;12.95;;
26702;SDS011;14316;51.074;3.704;2023-06-05T05:08:08;17.88;;;11.85;;
26702;SDS011;14316;51.074;3.704;2023-06-05T05:10:34;16.95;;;13.35;;
26702;SDS011;14316;51.074;3.704;2023-06-05T05:13:00;16.25;;;12.40;;
26702;SDS011;14316;51.074;3.704;2023-06-05T05:15:27;15.88;;;12.00;;
26702;SDS011;14316;51.074;3.704;2023-06-05T05:17:54;16.25;;;11.80;;
26702;SDS011;14316;51.074;3.704;2023-06-05T05:20:22;14.80;;;11.90;;
26702;SDS011;14316;51.074;3.704;2023-06-05T05:22:48;19.65;;;13.55;;
26702;SDS011;14316;51.074;3.704;2023-06-05T05:25:14;18.13;;;11.93;;
26702;SDS011;14316;51.074;3.704;2023-06-05T05:27:40;17.02;;;10.88;;
26702;SDS011;14316;51.074;3.704;2023-06-05T05:30:07;16.30;;;11.73;;
26702;SDS011;14316;51.074;3.704;2023-06-05T05:32:33;17.73;;;13.65;;
26702;SDS011;14316;51.074;3.704;2023-06-05T05:34:58;15.98;;;11.57;;
26702;SDS011;14316;51.074;3.704;2023-06-05T05:37:24;19.10;;;12.02;;
26702;SDS011;14316;51.074;3.704;2023-06-05T05:39:51;16.80;;;11.82;;
26702;SDS011;14316;51.074;3.704;2023-06-05T05:42:17;16.70;;;12.13;;
26702;SDS011;14316;51.074;3.704;2023-06-05T05:44:43;15.57;;;13.38;;
26702;SDS011;14316;51.074;3.704;2023-06-05T05:47:09;16.45;;;11.90;;
26702;SDS011;14316;51.074;3.704;2023-06-05T05:49:35;14.80;;;10.77;;
26702;SDS011;14316;51.074;3.704;2023-06-05T05:52:01;17.15;;;11.73;;
26702;SDS011;14316;51.074;3.704;2023-06-05T05:54:27;18.67;;;12.20;;
26702;SDS011;14316;51.074;3.704;2023-06-05T05:56:53;18.35;;;12.75;;
26702;SDS011;14316;51.074;3.704;2023-06-05T05:59:19;17.63;;;13.57;;
26702;SDS011;14316;51.074;3.704;2023-06-05T06:01:45;19.92;;;13.95;;
26702;SDS011;14316;51.074;3.704;2023-06-05T06:04:11;18.02;;;13.63;;
26702;SDS011;14316;51.074;3.704;2023-06-05T06:06:37;21.20;;;14.57;;
26702;SDS011;14316;51.074;3.704;2023-06-05T06:09:05;18.02;;;12.15;;
26702;SDS011;14316;51.074;3.704;2023-06-05T06:11:33;19.30;;;12.65;;
26702;SDS011;14316;51.074;3.704;2023-06-05T06:14:01;18.10;;;13.45;;
26702;SDS011;14316;51.074;3.704;2023-06-05T06:16:26;19.65;;;13.85;;
26702;SDS011;14316;51.074;3.704;2023-06-05T06:18:52;22.33;;;14.77;;
26702;SDS011;14316;51.074;3.704;2023-06-05T06:21:20;15.45;;;12.48;;
26702;SDS011;14316;51.074;3.704;2023-06-05T06:23:46;20.08;;;14.35;;
26702;SDS011;14316;51.074;3.704;2023-06-05T06:26:12;17.02;;;12.93;;
26702;SDS011;14316;51.074;3.704;2023-06-05T06:28:40;16.58;;;13.73;;
26702;SDS011;14316;51.074;3.704;2023-06-05T06:31:06;15.65;;;12.85;;
26702;SDS011;14316;51.074;3.704;2023-06-05T06:33:32;15.38;;;12.80;;
26702;SDS011;14316;51.074;3.704;2023-06-05T06:35:58;16.88;;;12.95;;
26702;SDS011;14316;51.074;3.704;2023-06-05T06:38:25;18.50;;;14.45;;
26702;SDS011;14316;51.074;3.704;2023-06-05T06:40:58;15.38;;;12.73;;
26702;SDS011;14316;51.074;3.704;2023-06-05T06:43:24;16.00;;;12.55;;
26702;SDS011;14316;51.074;3.704;2023-06-05T06:45:52;16.90;;;11.90;;
26702;SDS011;14316;51.074;3.704;2023-06-05T06:48:17;18.42;;;13.55;;
26702;SDS011;14316;51.074;3.704;2023-06-05T06:50:43;20.13;;;13.05;;
26702;SDS011;14316;51.074;3.704;2023-06-05T06:53:09;16.08;;;12.27;;
26702;SDS011;14316;51.074;3.704;2023-06-05T06:55:35;16.10;;;12.30;;
26702;SDS011;14316;51.074;3.704;2023-06-05T06:58:01;15.60;;;10.80;;
26702;SDS011;14316;51.074;3.704;2023-06-05T07:00:27;13.10;;;10.30;;
26702;SDS011;14316;51.074;3.704;2023-06-05T07:02:53;14.82;;;10.00;;
26702;SDS011;14316;51.074;3.704;2023-06-05T07:05:19;12.75;;;10.50;;
26702;SDS011;14316;51.074;3.704;2023-06-05T07:07:45;15.32;;;10.60;;
26702;SDS011;14316;51.074;3.704;2023-06-05T07:10:11;18.05;;;12.57;;
26702;SDS011;14316;51.074;3.704;2023-06-05T07:12:37;16.15;;;10.98;;
26702;SDS011;14316;51.074;3.704;2023-06-05T07:15:03;14.95;;;10.55;;
26702;SDS011;14316;51.074;3.704;2023-06-05T07:17:29;12.48;;;10.10;;
26702;SDS011;14316;51.074;3.704;2023-06-05T07:19:58;13.18;;;10.85;;
26702;SDS011;14316;51.074;3.704;2023-06-05T07:22:24;17.00;;;10.43;;
26702;SDS011;14316;51.074;3.704;2023-06-05T07:24:51;18.77;;;11.98;;
26702;SDS011;14316;51.074;3.704;2023-06-05T07:27:20;15.88;;;12.05;;
26702;SDS011;14316;51.074;3.704;2023-06-05T07:29:46;15.30;;;12.23;;
26702;SDS011;14316;51.074;3.704;2023-06-05T07:32:12;14.43;;;10.00;;
26702;SDS011;14316;51.074;3.704;2023-06-05T07:34:38;14.98;;;9.57;;
26702;SDS011;14316;51.074;3.704;2023-06-05T07:37:04;13.88;;;11.57;;
26702;SDS011;14316;51.074;3.704;2023-06-05T07:39:32;13.57;;;11.05;;
26702;SDS011;14316;51.074;3.704;2023-06-05T07:41:58;16.90;;;11.18;;
26702;SDS011;14316;51.074;3.704;2023-06-05T07:44:24;17.42;;;12.45;;
26702;SDS011;14316;51.074;3.704;2023-06-05T07:46:51;15.05;;;13.50;;
26702;SDS011;14316;51.074;3.704;2023-06-05T07:49:17;14.27;;;11.85;;
26702;SDS011;14316;51.074;3.704;2023-06-05T07:51:43;17.27;;;11.55;;
26702;SDS011;14316;51.074;3.704;2023-06-05T07:54:12;18.40;;;11.35;;
26702;SDS011;14316;51.074;3.704;2023-06-05T07:56:38;13.95;;;9.57;;
26702;SDS011;14316;51.074;3.704;2023-06-05T07:59:05;11.07;;;8.30;;
26702;SDS011;14316;51.074;3.704;2023-06-05T08:01:32;13.65;;;9.43;;
26702;SDS011;14316;51.074;3.704;2023-06-05T08:04:05;15.57;;;12.00;;
26702;SDS011;14316;51.074;3.704;2023-06-05T08:06:32;15.02;;;12.27;;
26702;SDS011;14316;51.074;3.704;2023-06-05T08:09:01;14.57;;;11.48;;
26702;SDS011;14316;51.074;3.704;2023-06-05T08:11:28;13.38;;;10.45;;
26702;SDS011;14316;51.074;3.704;2023-06-05T08:13:56;13.00;;;8.60;;
26702;SDS011;14316;51.074;3.704;2023-06-05T08:16:22;11.80;;;8.45;;
26702;SDS011;14316;51.074;3.704;2023-06-05T08:18:48;11.80;;;7.93;;
26702;SDS011;14316;51.074;3.704;2023-06-05T08:21:13;12.98;;;8.30;;
26702;SDS011;14316;51.074;3.704;2023-06-05T08:23:39;9.95;;;8.45;;
26702;SDS011;14316;51.074;3.704;2023-06-05T08:26:05;14.77;;;9.40;;
26702;SDS011;14316;51.074;3.704;2023-06-05T08:28:37;11.73;;;8.15;;
26702;SDS011;14316;51.074;3.704;2023-06-05T08:31:04;12.68;;;8.40;;
26702;SDS011;14316;51.074;3.704;2023-06-05T08:33:31;9.23;;;7.40;;
26702;SDS011;14316;51.074;3.704;2023-06-05T08:35:58;11.75;;;7.70;;
26702;SDS011;14316;51.074;3.704;2023-06-05T08:38:24;12.88;;;7.78;;
26702;SDS011;14316;51.074;3.704;2023-06-05T08:40:52;8.18;;;7.20;;
26702;SDS011;14316;51.074;3.704;2023-06-05T08:43:25;10.20;;;7.72;;
26702;SDS011;14316;51.074;3.704;2023-06-05T08:45:55;10.52;;;8.38;;
26702;SDS011;14316;51.074;3.704;2023-06-05T08:48:22;11.45;;;7.68;;
26702;SDS011;14316;51.074;3.704;2023-06-05T08:50:49;15.98;;;10.40;;
26702;SDS011;14316;51.074;3.704;2023-06-05T08:53:16;14.77;;;9.50;;
26702;SDS011;14316;51.074;3.704;2023-06-05T08:55:47;10.88;;;8.02;;
26702;SDS011;14316;51.074;3.704;2023-06-05T08:58:16;15.65;;;9.20;;
26702;SDS011;14316;51.074;3.704;2023-06-05T09:00:42;13.70;;;9.73;;
26702;SDS011;14316;51.074;3.704;2023-06-05T09:03:10;12.65;;;9.07;;
26702;SDS011;14316;51.074;3.704;2023-06-05T09:05:38;13.43;;;8.38;;
26702;SDS011;14316;51.074;3.704;2023-06-05T09:08:03;14.65;;;8.82;;
26702;SDS011;14316;51.074;3.704;2023-06-05T09:10:29;13.00;;;8.27;;
26702;SDS011;14316;51.074;3.704;2023-06-05T09:12:59;11.27;;;7.50;;
26702;SDS011;14316;51.074;3.704;2023-06-05T09:15:27;11.53;;;7.67;;
26702;SDS011;14316;51.074;3.704;2023-06-05T09:18:10;14.10;;;7.45;;
26702;SDS011;14316;51.074;3.704;2023-06-05T09:20:41;8.07;;;6.13;;
26702;SDS011;14316;51.074;3.704;2023-06-05T09:23:29;10.07;;;6.57;;
26702;SDS011;14316;51.074;3.704;2023-06-05T09:25:56;12.13;;;6.50;;
26702;SDS011;14316;51.074;3.704;2023-06-05T09:28:24;9.32;;;6.10;;
26702;SDS011;14316;51.074;3.704;2023-06-05T09:31:00;10.50;;;6.57;;
26702;SDS011;14316;51.074;3.704;2023-06-05T09:33:27;13.00;;;6.57;;
26702;SDS011;14316;51.074;3.704;2023-06-05T09:36:01;11.18;;;5.97;;
26702;SDS011;14316;51.074;3.704;2023-06-05T09:38:30;8.25;;;6.20;;
26702;SDS011;14316;51.074;3.704;2023-06-05T09:41:05;8.23;;;5.80;;
26702;SDS011;14316;51.074;3.704;2023-06-05T09:43:33;14.10;;;6.40;;
26702;SDS011;14316;51.074;3.704;2023-06-05T09:46:09;8.02;;;5.47;;
26702;SDS011;14316;51.074;3.704;2023-06-05T09:48:36;8.82;;;5.65;;
26702;SDS011;14316;51.074;3.704;2023-06-05T09:51:12;9.93;;;7.22;;
26702;SDS011;14316;51.074;3.704;2023-06-05T09:53:45;9.27;;;6.80;;
26702;SDS011;14316;51.074;3.704;2023-06-05T09:56:16;12.82;;;6.78;;
26702;SDS011;14316;51.074;3.704;2023-06-05T09:58:49;11.57;;;6.00;;
26702;SDS011;14316;51.074;3.704;2023-06-05T10:01:23;11.45;;;7.50;;
26702;SDS011;14316;51.074;3.704;2023-06-05T10:03:57;11.35;;;7.40;;
26702;SDS011;14316;51.074;3.704;2023-06-05T10:06:26;9.95;;;6.90;;
26702;SDS011;14316;51.074;3.704;2023-06-05T10:08:53;10.00;;;6.75;;
26702;SDS011;14316;51.074;3.704;2023-06-05T10:11:21;9.82;;;7.40;;
26702;SDS011;14316;51.074;3.704;2023-06-05T10:13:48;8.85;;;6.95;;
26702;SDS011;14316;51.074;3.704;2023-06-05T10:16:16;7.82;;;6.65;;
26702;SDS011;14316;51.074;3.704;2023-06-05T10:18:45;9.05;;;6.85;;
26702;SDS011;14316;51.074;3.704;2023-06-05T10:21:13;7.38;;;6.63;;
26702;SDS011;14316;51.074;3.704;2023-06-05T10:23:42;10.30;;;7.15;;
26702;SDS011;14316;51.074;3.704;2023-06-05T10:26:27;11.00;;;6.95;;
26702;SDS011;14316;51.074;3.704;2023-06-05T10:29:12;8.85;;;7.53;;
26702;SDS011;14316;51.074;3.704;2023-06-05T10:31:59;10.73;;;6.50;;
26702;SDS011;14316;51.074;3.704;2023-06-05T10:37:18;10.38;;;7.60;;
26702;SDS011;14316;51.074;3.704;2023-06-05T10:40:02;8.98;;;7.00;;
26702;SDS011;14316;51.074;3.704;2023-06-05T10:42:29;11.85;;;7.32;;
26702;SDS011;14316;51.074;3.704;2023-06-05T10:44:55;9.57;;;7.20;;
26702;SDS011;14316;51.074;3.704;2023-06-05T10:52:44;9.43;;;7.32;;
26702;SDS011;14316;51.074;3.704;2023-06-05T10:55:11;10.85;;;8.55;;
26702;SDS011;14316;51.074;3.704;2023-06-05T11:00:36;10.10;;;7.82;;
26702;SDS011;14316;51.074;3.704;2023-06-05T11:03:03;10.85;;;7.97;;
26702;SDS011;14316;51.074;3.704;2023-06-05T11:05:31;13.77;;;7.88;;
26702;SDS011;14316;51.074;3.704;2023-06-05T11:08:15;10.20;;;7.95;;
26702;SDS011;14316;51.074;3.704;2023-06-05T11:11:02;9.23;;;7.43;;
26702;SDS011;14316;51.074;3.704;2023-06-05T11:13:53;16.77;;;9.00;;
26702;SDS011;14316;51.074;3.704;2023-06-05T11:16:32;9.35;;;7.57;;
26702;SDS011;14316;51.074;3.704;2023-06-05T11:22:02;8.60;;;7.70;;
26702;SDS011;14316;51.074;3.704;2023-06-05T11:24:32;10.13;;;7.63;;
26702;SDS011;14316;51.074;3.704;2023-06-05T11:27:00;10.32;;;8.23;;
26702;SDS011;14316;51.074;3.704;2023-06-05T11:29:26;10.35;;;8.23;;
26702;SDS011;14316;51.074;3.704;2023-06-05T11:31:54;9.50;;;7.82;;
26702;SDS011;14316;51.074;3.704;2023-06-05T11:34:20;8.55;;;6.95;;
26702;SDS011;14316;51.074;3.704;2023-06-05T11:36:46;7.97;;;7.07;;
26702;SDS011;14316;51.074;3.704;2023-06-05T11:39:13;15.40;;;9.10;;
26702;SDS011;14316;51.074;3.704;2023-06-05T11:41:43;7.30;;;6.60;;
26702;SDS011;14316;51.074;3.704;2023-06-05T11:44:13;9.68;;;8.35;;
26702;SDS011;14316;51.074;3.704;2023-06-05T11:46:40;10.27;;;8.60;;
26702;SDS011;14316;51.074;3.704;2023-06-05T11:49:22;9.80;;;8.15;;
26702;SDS011;14316;51.074;3.704;2023-06-05T11:51:50;10.68;;;8.75;;
26702;SDS011;14316;51.074;3.704;2023-06-05T11:54:31;12.35;;;8.50;;
26702;SDS011;14316;51.074;3.704;2023-06-05T11:57:04;9.95;;;7.40;;
26702;SDS011;14316;51.074;3.704;2023-06-05T11:59:36;8.10;;;7.30;;
26702;SDS011;14316;51.074;3.704;2023-06-05T12:02:03;8.85;;;7.53;;
26702;SDS011;14316;51.074;3.704;2023-06-05T12:04:33;9.45;;;7.15;;
26702;SDS011;14316;51.074;3.704;2023-06-05T12:06:59;8.77;;;7.68;;
26702;SDS011;14316;51.074;3.704;2023-06-05T12:09:26;7.72;;;6.72;;
26702;SDS011;14316;51.074;3.704;2023-06-05T12:11:52;8.15;;;7.40;;
26702;SDS011;14316;51.074;3.704;2023-06-05T12:14:31;9.07;;;6.65;;
26702;SDS011;14316;51.074;3.704;2023-06-05T12:16:57;8.20;;;6.60;;
26702;SDS011;14316;51.074;3.704;2023-06-05T12:19:23;8.27;;;6.97;;
26702;SDS011;14316;51.074;3.704;2023-06-05T12:21:49;7.80;;;6.15;;
26702;SDS011;14316;51.074;3.704;2023-06-05T12:24:24;9.45;;;7.00;;
26702;SDS011;14316;51.074;3.704;2023-06-05T12:26:54;8.15;;;5.70;;
26702;SDS011;14316;51.074;3.704;2023-06-05T12:29:22;9.50;;;5.93;;
26702;SDS011;14316;51.074;3.704;2023-06-05T12:31:50;7.53;;;6.63;;
26702;SDS011;14316;51.074;3.704;2023-06-05T12:34:16;8.00;;;6.78;;
26702;SDS011;14316;51.074;3.704;2023-06-05T12:36:43;7.50;;;5.55;;
26702;SDS011;14316;51.074;3.704;2023-06-05T12:39:09;8.93;;;5.30;;
26702;SDS011;14316;51.074;3.704;2023-06-05T12:41:37;6.25;;;5.63;;
26702;SDS011;14316;51.074;3.704;2023-06-05T12:44:04;7.75;;;5.63;;
26702;SDS011;14316;51.074;3.704;2023-06-05T12:46:31;8.45;;;7.28;;
26702;SDS011;14316;51.074;3.704;2023-06-05T12:49:01;8.45;;;5.43;;
26702;SDS011;14316;51.074;3.704;2023-06-05T12:51:28;9.57;;;6.80;;
26702;SDS011;14316;51.074;3.704;2023-06-05T12:53:55;7.95;;;5.57;;
26702;SDS011;14316;51.074;3.704;2023-06-05T12:56:22;7.80;;;6.00;;
26702;SDS011;14316;51.074;3.704;2023-06-05T12:58:55;7.10;;;5.93;;
26702;SDS011;14316;51.074;3.704;2023-06-05T13:01:23;6.65;;;5.45;;
26702;SDS011;14316;51.074;3.704;2023-06-05T13:03:50;6.30;;;5.70;;
26702;SDS011;14316;51.074;3.704;2023-06-05T13:06:17;7.03;;;5.07;;
26702;SDS011;14316;51.074;3.704;2023-06-05T13:08:43;6.63;;;5.43;;
26702;SDS011;14316;51.074;3.704;2023-06-05T13:11:10;9.85;;;5.40;;
26702;SDS011;14316;51.074;3.704;2023-06-05T13:13:37;9.35;;;6.20;;
26702;SDS011;14316;51.074;3.704;2023-06-05T13:16:03;14.65;;;5.82;;
26702;SDS011;14316;51.074;3.704;2023-06-05T13:18:31;5.07;;;4.60;;
26702;SDS011;14316;51.074;3.704;2023-06-05T13:20:58;5.85;;;5.25;;
26702;SDS011;14316;51.074;3.704;2023-06-05T13:23:24;6.13;;;5.28;;
26702;SDS011;14316;51.074;3.704;2023-06-05T13:25:50;9.50;;;6.35;;
26702;SDS011;14316;51.074;3.704;2023-06-05T13:28:16;8.05;;;6.82;;
26702;SDS011;14316;51.074;3.704;2023-06-05T13:30:42;6.90;;;5.90;;
26702;SDS011;14316;51.074;3.704;2023-06-05T13:33:08;6.40;;;5.45;;
26702;SDS011;14316;51.074;3.704;2023-06-05T13:35:33;7.20;;;6.50;;
26702;SDS011;14316;51.074;3.704;2023-06-05T13:37:59;9.48;;;7.10;;
26702;SDS011;14316;51.074;3.704;2023-06-05T13:40:26;8.20;;;6.32;;
26702;SDS011;14316;51.074;3.704;2023-06-05T13:42:53;9.35;;;6.05;;
26702;SDS011;14316;51.074;3.704;2023-06-05T13:45:19;9.25;;;6.70;;
26702;SDS011;14316;51.074;3.704;2023-06-05T13:47:45;7.95;;;7.22;;
26702;SDS011;14316;51.074;3.704;2023-06-05T13:50:11;7.43;;;5.53;;
26702;SDS011;14316;51.074;3.704;2023-06-05T13:52:37;7.72;;;6.60;;
26702;SDS011;14316;51.074;3.704;2023-06-05T13:55:03;8.50;;;6.35;;
26702;SDS011;14316;51.074;3.704;2023-06-05T13:57:30;7.85;;;6.45;;
26702;SDS011;14316;51.074;3.704;2023-06-05T13:59:55;7.60;;;5.85;;
26702;SDS011;14316;51.074;3.704;2023-06-05T14:02:21;8.68;;;6.35;;
26702;SDS011;14316;51.074;3.704;2023-06-05T14:04:47;6.15;;;5.50;;
26702;SDS011;14316;51.074;3.704;2023-06-05T14:07:13;8.25;;;5.50;;
26702;SDS011;14316;51.074;3.704;2023-06-05T14:09:39;9.70;;;6.55;;
26702;SDS011;14316;51.074;3.704;2023-06-05T14:12:05;6.95;;;5.28;;
26702;SDS011;14316;51.074;3.704;2023-06-05T14:14:31;6.40;;;5.80;;
26702;SDS011;14316;51.074;3.704;2023-06-05T14:16:57;8.20;;;5.70;;
26702;SDS011;14316;51.074;3.704;2023-06-05T14:19:23;7.97;;;5.30;;
26702;SDS011;14316;51.074;3.704;2023-06-05T14:21:48;5.57;;;5.07;;
26702;SDS011;14316;51.074;3.704;2023-06-05T14:24:14;9.10;;;5.30;;
26702;SDS011;14316;51.074;3.704;2023-06-05T14:26:40;6.18;;;4.53;;
26702;SDS011;14316;51.074;3.704;2023-06-05T14:29:07;6.57;;;4.93;;
26702;SDS011;14316;51.074;3.704;2023-06-05T14:31:33;8.80;;;4.88;;
26702;SDS011;14316;51.074;3.704;2023-06-05T14:33:58;7.03;;;4.93;;
26702;SDS011;14316;51.074;3.704;2023-06-05T14:36:24;6.70;;;4.82;;
26702;SDS011;14316;51.074;3.704;2023-06-05T14:38:50;5.55;;;4.63;;
26702;SDS011;14316;51.074;3.704;2023-06-05T14:41:16;6.53;;;4.75;;
26702;SDS011;14316;51.074;3.704;2023-06-05T14:43:42;4.90;;;4.05;;
26702;SDS011;14316;51.074;3.704;2023-06-05T14:46:08;6.70;;;4.80;;
26702;SDS011;14316;51.074;3.704;2023-06-05T14:48:33;6.45;;;4.47;;
26702;SDS011;14316;51.074;3.704;2023-06-05T14:50:59;5.43;;;4.22;;
26702;SDS011;14316;51.074;3.704;2023-06-05T14:53:25;6.50;;;4.30;;
26702;SDS011;14316;51.074;3.704;2023-06-05T14:55:52;5.50;;;4.80;;
26702;SDS011;14316;51.074;3.704;2023-06-05T14:58:18;7.50;;;4.60;;